Timeline UpdatesTrip UpdatesNews PostsPvt Posts♥♥Travel TipsAdmin PostsConv PostsFollowed PostsChat RequestsBlog PostsPNR Posts

Disclaimer
Search
 
 
Fri Nov 28, 2014 01:03:01 ISTHomeTrainsΣChainsAtlasPNRForumGalleryNewsFAQTripsMembersLoginFeedback
No Recent News for this Train
Other Trains in the News **new
Latest...
.
Sun Mar 09, 2014 (04:40PM)
⇐ Return Journey: Train# 59385

59386/Panchvalley Fast Passenger

Time-Table HAS CHANGED.
Nov 11 (2:39PM)
Change Departure Station:
Change Arrival Station:
Post a Train Travel TipPost a Train Travel Tip **new
Post a Comment/Question/Picture/VideoPost a Comment/Question/Picture/Video
Pantry/Catering
✕ NO Pantry Car
✕ NO Catering
RSA - Rake Sharing
59385/59386 Panchvalley Passenger; 59319/59320 Ujjain Bhopal Passenger; 59379/59380 Indore Maksi Passenger; 59389/59390 Indore Bhopal Passenger
Rake/Coach Composition
loco-slr-gen-gen-gen-s3-s2-s1-b1-gen-gen-gen-gen-gen-slr
Loco
CWA-ET: RTM WDM-3A ET-INDB: ET WAM-4
News    PNR    Forum    Time-Table    Availability    Fare Chart    Map    Arr/Dep History    Trips    Gallery    ΣChains    X/O    Timeline    
Travel Time: 1h 38m    6 halts    Distance: 57 km    Avg Speed: 34 km/hr
Type: Mail/Express
Zone: WR/Western
Departs @ 21:05 (Avg on time)
Platform# 3
SMTWTFS
Chhindwara Junction/CWA 
Arrives @ 22:43 (Avg 20m late)
Platform# ???
SMTWTFS
Hirdagarh/HRG 

6 halts. 7 intermediate Stations between Chhindwara Junction and Hirdagarh

Show ALL intermediate Stations  Show Old Time-Table

#TrkCodeStation NameX/OArrivesAvgDepartsAvgHaltPFDay#KmSpeedElevZoneAddress
1|--|CWAChhindwara Junction (3)»  -21:05+0310.038675mSECRNH 69A Seoni Road, Madhya Pradesh
2|--|GNWGangiwara (1)  21:26-21:27-1m--113.323714mCRChhindwara, Madhya Pradesh
3|--|KUXKhirsadoh Junction (2)  21:47-21:48-1m--120.975769mCRChhindwara, Madhya Pradesh
4|--|PUXParasia (2)  21:54+1421:56+142m--128.438775mCRDongar Parasia, Madhya Pradesh
5|--|IKRIklehra (1)  22:06+1822:07+191m1134.730771mCRDongar Parasia, Madhya Pradesh
6|--|PCLIPalachauri (1)  22:16+2022:17+201m1139.144787mCRDongar Parasia, Madhya Pradesh
7|--|JNOJunnor Deo (2)  22:28+1922:29+201m--147.243762mCRDongar Parasia, Madhya Pradesh
8|--|HRGHirdagarh (2)•  22:43+2022:44+221m--157.341721mCRDongar Parasia, Madhya Pradesh
9|--|MKDNMorkadhana (1)  22:52-22:53-1m1162.851747mCRNayagaon, Madhya Pradesh
10|--|NVGNavegaon (1)  23:04+2223:05+231m1172.244794mCRNayagaon, Madhya Pradesh
11|--|BQMBarelipur (1)  23:14-23:15-1m1178.862744mCRNayagaon, Madhya Pradesh
12|--|BXYBordhal (1)  23:24+2223:25+231m1188.256710mCRAmla, Madhya Pradesh
13|--|BCRDBarchi Road (1)  23:32-23:33-1m1194.750713mCRState Highway 26, Madhya Pradesh
14|--|JMVJambara (1)  23:41+2323:42+251m11101.319706mCRAmla, Madhya Pradesh
15|--|AMLAAmla Junction (5)X  00:25+400:40+1115m42114.965733mCRAmla Distt. Betul, Madhya Pradesh
16/==/BYSBarsali (2)  00:49+2600:50+311m--2124.745699mCRAmla, Madhya Pradesh
17/==/MALKMalkapur Road (1)XO  00:59+2701:00+281m12131.443668mCRBetul, Madhya Pradesh
18/==/BZUBetul (3)XO  01:09+2001:10+381m--2137.837644mCRBetul, Madhya Pradesh
19/==/MJYMaramjhiri (2)XO  01:23+1:0001:24+1:161m--2145.952642mCRBetul, Madhya Pradesh
20/==/GDYAGhoradongri (3)X  01:56+1:0401:57+1:071m--2173.858407mCRBetul, Madhya Pradesh
21/==/BBTRBarbatpur (3)X  02:09+1:3002:10+1:371m--2185.435394mCRBetul, Madhya Pradesh
22/==/DOHDhodramohar (2)  02:29+1:3102:30+1:311m--2196.430376mCRBetul, Madhya Pradesh
23/==/KQEKala Akhar (2)X  02:59+1:2003:00+1:201m--2211.149376mCRItarsi, Madhya Pradesh
24/==/SAHLSaheli (2) new halt!!X  03:08+1:1603:10+1:162m--2217.68388mCRItarsi, Madhya Pradesh
25/==/TAKUTaku (2)XO  03:39+5903:40+1:001m--2221.718390mCRItarsi, Madhya Pradesh
26/==/KRTHKiratgarh (2)XO  04:19+4004:20+381m--2233.49369mCRItarsi, Madhya Pradesh
27/==/ETItarsi Junction (7)O  05:35+505:45+910m--2244.145329mWCRItarsi 461111, Madhya Pradesh
28/==/PRKDPowerkheda  05:56+3505:57+361m--2252.454316mWCRItarsi, Madhya Pradesh
29/==/HBDHoshangabad (2)X  06:08+3206:09+341m--2262.238308mWCRHoshangabad, Madhya Pradesh
30/==/BNIBudni (2)X  06:20+3906:21+471m--2269.232311mWCRSehore 466445 Madhya pradesh, Madhya Pradesh
31/==/BKABarkheraX  06:57+4706:58+481m--2288.662472mWCRBarkhera, Madhya Pradesh
32/==/ODGObaidulla Ganj  07:09+4807:10+511m22300.0101448mWCRObaidullaganj Raisen Dist., Madhya Pradesh
33/==/MDDPMandi Dip (1)X  07:18+5807:19+591m12313.560455mWCRMandideep, Madhya Pradesh
34/==/MSOMisrod (2)XO  07:29+5907:30+1:001m12323.510468mWCRBhopal, Madhya Pradesh
35/==/HBJBhopal HabibGanj (5)XO  08:08+2708:10+272m22329.611496mWCRHabibGanj, Madhya Pradesh
36/==/BPLBhopal Junction (6)X  08:45+2608:55+2610m--2335.931497mWCRBhopal, Madhya Pradesh
37/==/BIHBairagarh (2)X  09:15+3809:16+381m12346.168522mWRBhopal, Madhya Pradesh
38/==/SEHSehore (2)  09:41+4009:42+411m12374.670500mWRMP 466001, Madhya Pradesh
39/==/KPPKalapipal (2)  10:07+2010:08+201m--2403.669487mWRState Highway 41, Madhya Pradesh
40/==/SJPShujalpur (3)  10:20 10:19+2110:21 10:20+211m--2416.265453mWRShujalpur, Madhya Pradesh
41/==/AKDAkodia (2)  10:34 10:32+4010:35 10:33+411m--2429.383460mWRDist. Shajapur, Madhya Pradesh
42/==/KSHKali Sindh (2) new halt!!  10:46+4510:47+451m--2447.273443mWRShajapur, Madhya Pradesh
43/==/BCHBerchha (2)  10:57+4410:58+451m--2459.331490mWRShajapur, Madhya Pradesh
44/==/MKCMaksi Junction (3)  11:34+2611:36+272m--2478.261513mWRMakshi, Madhya Pradesh
45/--/RCJRanyal Jasmiya  11:51+1111:52+111m--2493.552516mWRDevas, Madhya Pradesh
46/--/DWXDewas Junction (2)  12:16+2312:18+322m12514.541541mWRDewas, Madhya Pradesh
47/--/INDBIndore Junction BG (3)  13:15+17-32553.2-552mWRIndore 452001, Madhya Pradesh
Scroll to Top
Scroll to Bottom